createdAt,value
2019-04-14T00:01:30.475Z,9.75
2019-04-14T00:03:57.229Z,9.75
2019-04-14T00:06:24.400Z,9.74
2019-04-14T00:08:52.130Z,9.74
2019-04-14T00:11:19.131Z,9.74
2019-04-14T00:13:45.771Z,9.72
2019-04-14T00:16:12.347Z,9.72
2019-04-14T00:18:38.956Z,9.70
2019-04-14T00:21:06.572Z,9.68
2019-04-14T00:23:33.242Z,9.66
2019-04-14T00:26:00.788Z,9.65
2019-04-14T00:28:27.499Z,9.65
2019-04-14T00:30:54.077Z,9.64
2019-04-14T00:33:21.368Z,9.60
2019-04-14T00:35:48.034Z,9.58
2019-04-14T00:38:15.198Z,9.54
2019-04-14T00:40:43.178Z,9.50
2019-04-14T00:43:09.894Z,9.46
2019-04-14T00:45:42.643Z,9.43
2019-04-14T00:48:09.784Z,9.39
2019-04-14T00:50:34.099Z,9.35
2019-04-14T00:53:01.195Z,9.33
2019-04-14T00:55:27.938Z,9.29
2019-04-14T00:57:55.118Z,9.24
2019-04-14T01:00:21.994Z,9.16
2019-04-14T01:02:49.377Z,9.10
2019-04-14T01:05:15.983Z,9.04
2019-04-14T01:07:43.435Z,8.98
2019-04-14T01:10:10.433Z,8.94
2019-04-14T01:12:37.115Z,8.89
2019-04-14T01:15:04.906Z,8.83
2019-04-14T01:17:31.639Z,8.79
2019-04-14T01:19:59.234Z,8.76
2019-04-14T01:22:27.002Z,8.72
2019-04-14T01:24:53.653Z,8.69
2019-04-14T01:27:21.100Z,8.67
2019-04-14T01:29:47.690Z,8.64
2019-04-14T01:32:15.380Z,8.62
2019-04-14T01:34:43.304Z,8.60
2019-04-14T01:37:10.104Z,8.59
2019-04-14T01:39:37.184Z,8.58
2019-04-14T01:42:04.931Z,8.54
2019-04-14T01:44:31.604Z,8.54
2019-04-14T01:46:58.802Z,8.51
2019-04-14T01:49:26.769Z,8.49
2019-04-14T01:51:53.550Z,8.48
2019-04-14T01:54:21.324Z,8.44
2019-04-14T01:56:49.050Z,8.42
2019-04-14T01:59:15.803Z,8.40
2019-04-14T02:01:42.379Z,8.36
2019-04-14T02:04:09.508Z,8.33
2019-04-14T02:06:36.209Z,8.29
2019-04-14T02:09:03.290Z,8.26
2019-04-14T02:11:31.233Z,8.23
2019-04-14T02:13:59.120Z,8.20
2019-04-14T02:16:34.870Z,8.17
2019-04-14T02:18:55.659Z,8.13
2019-04-14T02:21:23.757Z,8.08
2019-04-14T02:23:51.780Z,8.05
2019-04-14T02:26:19.673Z,8.03
2019-04-14T02:28:46.465Z,7.99
2019-04-14T02:31:30.085Z,7.96
2019-04-14T02:34:07.537Z,7.96
2019-04-14T02:36:41.727Z,7.93
2019-04-14T02:39:10.394Z,7.91
2019-04-14T02:41:43.603Z,7.88
2019-04-14T02:44:04.640Z,7.87
2019-04-14T02:46:32.201Z,7.86
2019-04-14T02:48:58.787Z,7.85
2019-04-14T02:51:27.207Z,7.86
2019-04-14T02:53:59.252Z,7.84
2019-04-14T02:56:24.941Z,7.85
2019-04-14T02:58:51.952Z,7.84
2019-04-14T03:01:27.669Z,7.82
2019-04-14T03:03:46.804Z,7.81
2019-04-14T03:06:14.677Z,7.80
2019-04-14T03:11:09.483Z,7.78
2019-04-14T03:16:17.491Z,7.76
2019-04-14T03:21:04.364Z,7.75
2019-04-14T03:23:51.415Z,7.73
2019-04-14T03:25:57.268Z,7.70
2019-04-14T03:28:33.922Z,7.68
2019-04-14T03:31:33.242Z,7.67
2019-04-14T03:33:48.418Z,7.66
2019-04-14T03:36:17.205Z,7.64
2019-04-14T03:38:26.321Z,7.62
2019-04-14T03:41:06.766Z,7.59
2019-04-14T03:45:54.026Z,7.55
2019-04-14T03:50:45.976Z,7.51
2019-04-14T03:53:19.097Z,7.50
2019-04-14T03:55:28.376Z,7.48
2019-04-14T03:57:43.966Z,7.45
2019-04-14T04:00:11.646Z,7.43
2019-04-14T04:02:38.388Z,7.39
2019-04-14T04:05:06.314Z,7.39
2019-04-14T04:07:34.103Z,7.39
2019-04-14T04:10:00.952Z,7.39
2019-04-14T04:12:27.569Z,7.40
2019-04-14T04:14:55.209Z,7.40
2019-04-14T04:17:21.911Z,7.42
2019-04-14T04:19:49.194Z,7.43
2019-04-14T04:22:17.102Z,7.44
2019-04-14T04:24:43.816Z,7.46
2019-04-14T04:27:11.092Z,7.48
2019-04-14T04:29:37.791Z,7.51
2019-04-14T04:32:05.589Z,7.52
2019-04-14T04:34:32.332Z,7.54
2019-04-14T04:36:59.594Z,7.57
2019-04-14T04:39:26.242Z,7.59
2019-04-14T04:41:53.778Z,7.61
2019-04-14T04:44:20.577Z,7.65
2019-04-14T04:46:48.285Z,7.67
2019-04-14T04:49:20.512Z,7.73
2019-04-14T04:51:44.259Z,7.77
2019-04-14T04:54:11.031Z,7.82
2019-04-14T04:56:38.354Z,7.88
2019-04-14T04:59:05.437Z,7.94
2019-04-14T05:01:32.122Z,8.00
2019-04-14T05:03:58.706Z,8.04
2019-04-14T05:06:26.483Z,8.06
2019-04-14T05:08:54.391Z,8.10
2019-04-14T05:11:21.087Z,8.15
2019-04-14T05:13:48.783Z,8.19
2019-04-14T05:16:15.537Z,8.23
2019-04-14T05:18:42.119Z,8.29
2019-04-14T05:21:08.694Z,8.34
2019-04-14T05:23:35.273Z,8.40
2019-04-14T05:26:02.743Z,8.45
2019-04-14T05:28:29.533Z,8.52
2019-04-14T05:30:56.880Z,8.57
2019-04-14T05:33:24.926Z,8.63
2019-04-14T05:35:51.706Z,8.71
2019-04-14T05:38:19.043Z,8.79
2019-04-14T05:40:45.874Z,8.89
2019-04-14T05:43:17.118Z,8.98
2019-04-14T05:45:41.641Z,9.04
2019-04-14T05:48:09.611Z,9.14
2019-04-14T05:50:36.421Z,9.21
2019-04-14T05:53:04.261Z,9.28
2019-04-14T05:55:30.967Z,9.35
2019-04-14T05:57:57.552Z,9.43
2019-04-14T06:00:24.161Z,9.49
2019-04-14T06:02:50.787Z,9.55
2019-04-14T06:05:17.401Z,9.62
2019-04-14T06:07:43.971Z,9.68
2019-04-14T06:10:10.567Z,9.74
2019-04-14T06:12:37.148Z,9.77
2019-04-14T06:15:03.764Z,9.81
2019-04-14T06:17:30.346Z,9.84
2019-04-14T06:19:56.934Z,9.87
2019-04-14T06:22:23.508Z,9.88
2019-04-14T06:24:50.099Z,9.88
2019-04-14T06:27:16.681Z,9.88
2019-04-14T06:29:43.291Z,9.86
2019-04-14T06:32:09.865Z,9.83
2019-04-14T06:34:36.463Z,9.80
2019-04-14T06:37:03.045Z,9.79
2019-04-14T06:39:31.141Z,9.80
2019-04-14T06:41:57.718Z,9.82
2019-04-14T06:44:24.293Z,9.84
2019-04-14T06:46:50.959Z,9.87
2019-04-14T06:49:17.549Z,9.96
2019-04-14T06:51:44.120Z,10.07
2019-04-14T06:54:10.693Z,10.19
2019-04-14T06:56:37.279Z,10.33
2019-04-14T06:59:03.861Z,10.50
2019-04-14T07:01:30.437Z,10.66
2019-04-14T07:03:57.013Z,10.83
2019-04-14T07:06:23.600Z,10.99
2019-04-14T07:08:50.196Z,11.16
2019-04-14T07:11:16.822Z,11.31
2019-04-14T07:13:47.920Z,11.44
2019-04-14T07:16:11.702Z,11.58
2019-04-14T07:18:38.265Z,11.71
2019-04-14T07:21:04.850Z,11.85
2019-04-14T07:23:31.416Z,11.98
2019-04-14T07:25:58.001Z,12.09
2019-04-14T07:28:24.584Z,12.18
2019-04-14T07:30:51.162Z,12.20
2019-04-14T07:33:17.746Z,12.23
2019-04-14T07:35:44.431Z,12.24
2019-04-14T07:38:11.013Z,12.26
2019-04-14T07:40:37.621Z,12.29
2019-04-14T07:43:04.204Z,12.30
2019-04-14T07:45:30.778Z,12.32
2019-04-14T07:47:57.377Z,12.32
2019-04-14T07:50:23.953Z,12.36
2019-04-14T07:52:50.545Z,12.41
2019-04-14T07:55:17.117Z,12.49
2019-04-14T07:57:52.673Z,12.58
2019-04-14T08:00:19.248Z,12.70
2019-04-14T08:02:45.835Z,12.83
2019-04-14T08:05:12.423Z,12.98
2019-04-14T08:07:39.011Z,13.18
2019-04-14T08:10:05.595Z,13.39
2019-04-14T08:12:35.055Z,13.61
2019-04-14T08:15:00.471Z,13.82
2019-04-14T08:17:27.055Z,14.09
2019-04-14T08:19:53.658Z,14.36
2019-04-14T08:22:20.225Z,14.62
2019-04-14T08:24:46.810Z,14.79
2019-04-14T08:27:13.389Z,14.94
2019-04-14T08:29:39.958Z,15.10
2019-04-14T08:32:06.535Z,15.25
2019-04-14T08:34:33.111Z,15.41
2019-04-14T08:36:59.689Z,15.53
2019-04-14T08:39:26.262Z,15.62
2019-04-14T08:41:52.846Z,15.70
2019-04-14T08:44:19.425Z,15.81
2019-04-14T08:46:46.008Z,15.89
2019-04-14T08:49:12.591Z,15.95
2019-04-14T08:51:39.210Z,16.02
2019-04-14T08:54:05.789Z,16.11
2019-04-14T08:56:32.377Z,16.26
2019-04-14T08:58:58.952Z,16.41
2019-04-14T09:01:25.547Z,16.58
2019-04-14T09:03:52.131Z,16.73
2019-04-14T09:06:18.751Z,16.91
2019-04-14T09:08:45.327Z,17.05
2019-04-14T09:11:11.946Z,17.16
2019-04-14T09:13:38.517Z,17.27
2019-04-14T09:16:05.117Z,17.38
2019-04-14T09:18:31.679Z,17.53
2019-04-14T09:20:58.297Z,17.65
2019-04-14T09:23:24.866Z,17.78
2019-04-14T09:25:51.518Z,17.94
2019-04-14T09:28:18.096Z,18.11
2019-04-14T09:30:44.736Z,18.27
2019-04-14T09:33:11.311Z,18.43
2019-04-14T09:35:37.923Z,18.62
2019-04-14T09:38:04.495Z,18.74
2019-04-14T09:40:31.106Z,18.88
2019-04-14T09:42:57.877Z,19.00
2019-04-14T09:45:24.454Z,19.11
2019-04-14T09:47:51.027Z,19.16
2019-04-14T09:50:17.595Z,19.16
2019-04-14T09:52:44.275Z,19.23
2019-04-14T09:55:10.836Z,19.31
2019-04-14T09:57:37.472Z,19.39
2019-04-14T10:00:04.127Z,19.51
2019-04-14T10:02:30.699Z,19.64
2019-04-14T10:04:57.270Z,19.80
2019-04-14T10:07:24.050Z,19.95
2019-04-14T10:09:50.714Z,20.07
2019-04-14T10:12:17.432Z,20.23
2019-04-14T10:14:44.010Z,20.44
2019-04-14T10:17:10.670Z,20.71
2019-04-14T10:19:37.342Z,21.06
2019-04-14T10:22:03.936Z,21.43
2019-04-14T10:24:30.502Z,21.82
2019-04-14T10:26:57.081Z,22.26
2019-04-14T10:29:23.653Z,22.72
2019-04-14T10:31:50.223Z,23.14
2019-04-14T10:34:16.796Z,23.59
2019-04-14T10:36:43.374Z,23.96
2019-04-14T10:39:09.942Z,24.41
2019-04-14T10:41:36.543Z,24.89
2019-04-14T10:44:03.114Z,25.41
2019-04-14T10:46:29.739Z,25.92
2019-04-14T10:48:56.481Z,26.48
2019-04-14T10:51:29.959Z,27.03
2019-04-14T10:53:51.451Z,27.55
2019-04-14T10:56:18.037Z,28.14
2019-04-14T10:58:44.626Z,28.73
2019-04-14T11:01:11.200Z,29.27
2019-04-14T11:03:37.813Z,29.75
2019-04-14T11:06:04.451Z,30.27
2019-04-14T11:08:31.051Z,30.71
2019-04-14T11:10:57.626Z,31.29
2019-04-14T11:13:24.223Z,31.83
2019-04-14T11:15:50.794Z,32.45
2019-04-14T11:18:17.408Z,33.07
2019-04-14T11:20:43.992Z,33.72
2019-04-14T11:23:10.600Z,34.21
2019-04-14T11:25:37.173Z,34.48
2019-04-14T11:28:03.783Z,34.63
2019-04-14T11:30:30.371Z,34.81
2019-04-14T11:32:56.963Z,34.97
2019-04-14T11:35:23.536Z,35.25
2019-04-14T11:37:50.162Z,35.62
2019-04-14T11:40:16.732Z,35.72
2019-04-14T11:42:52.148Z,35.91
2019-04-14T11:45:11.741Z,35.95
2019-04-14T11:47:38.312Z,36.12
2019-04-14T11:50:04.989Z,36.45
2019-04-14T11:52:31.562Z,36.91
2019-04-14T11:54:58.185Z,37.42
2019-04-14T11:57:24.776Z,37.81
2019-04-14T11:59:51.437Z,38.02
2019-04-14T12:02:18.013Z,38.37
2019-04-14T12:04:44.587Z,38.42
2019-04-14T12:07:11.152Z,38.48
2019-04-14T12:09:37.729Z,38.52
2019-04-14T12:12:04.295Z,38.56
2019-04-14T12:14:30.885Z,38.65
2019-04-14T12:16:57.458Z,38.89
2019-04-14T12:19:24.025Z,39.28
2019-04-14T12:21:50.593Z,39.53
2019-04-14T12:24:17.170Z,40.13
2019-04-14T12:26:43.745Z,40.76
2019-04-14T12:29:10.328Z,41.13
2019-04-14T12:31:37.414Z,41.31
2019-04-14T12:34:04.044Z,41.41
2019-04-14T12:36:30.616Z,41.77
2019-04-14T12:38:57.232Z,42.30
2019-04-14T12:41:24.170Z,42.95
2019-04-14T12:43:50.903Z,43.64
2019-04-14T12:46:17.498Z,44.00
2019-04-14T12:48:44.078Z,44.36
2019-04-14T12:51:10.643Z,44.55
2019-04-14T12:53:37.227Z,44.81
2019-04-14T12:56:03.797Z,45.23
2019-04-14T12:58:30.364Z,45.69
2019-04-14T13:00:58.052Z,46.43
2019-04-14T13:03:24.630Z,46.99
2019-04-14T13:05:51.207Z,47.58
2019-04-14T13:08:17.776Z,48.28
2019-04-14T13:10:44.376Z,48.87
2019-04-14T13:13:10.952Z,49.50
2019-04-14T13:15:37.557Z,50.15
2019-04-14T13:18:04.155Z,50.49
2019-04-14T13:20:30.748Z,50.77
2019-04-14T13:22:57.327Z,51.04
2019-04-14T13:25:23.945Z,51.17
2019-04-14T13:27:50.523Z,51.32
2019-04-14T13:30:17.114Z,51.70
2019-04-14T13:32:44.757Z,52.16
2019-04-14T13:35:11.357Z,52.73
2019-04-14T13:37:37.917Z,53.27
2019-04-14T13:40:04.532Z,53.73
2019-04-14T13:42:31.104Z,53.82
2019-04-14T13:44:57.687Z,53.49
2019-04-14T13:47:24.255Z,53.38
2019-04-14T13:49:50.844Z,52.83
2019-04-14T13:52:17.417Z,52.70
2019-04-14T13:54:44.022Z,52.65
2019-04-14T13:57:10.592Z,52.08
2019-04-14T13:59:37.174Z,51.38
2019-04-14T14:02:03.742Z,50.59
2019-04-14T14:04:30.323Z,49.28
2019-04-14T14:06:56.890Z,48.18
2019-04-14T14:09:23.467Z,47.38
2019-04-14T14:11:50.040Z,46.33
2019-04-14T14:14:16.608Z,45.14
2019-04-14T14:16:43.295Z,44.06
2019-04-14T14:19:09.991Z,42.71
2019-04-14T14:21:36.617Z,42.03
2019-04-14T14:24:03.191Z,41.74
2019-04-14T14:26:29.811Z,41.33
2019-04-14T14:28:56.422Z,40.73
2019-04-14T14:31:23.020Z,39.73
2019-04-14T14:33:49.613Z,39.64
2019-04-14T14:36:16.277Z,39.93
2019-04-14T14:38:42.853Z,40.54
2019-04-14T14:41:09.463Z,41.14
2019-04-14T14:43:36.084Z,41.39
2019-04-14T14:46:02.681Z,41.17
2019-04-14T14:48:29.239Z,40.94
2019-04-14T14:50:55.870Z,40.44
2019-04-14T14:53:22.507Z,40.70
2019-04-14T14:55:49.088Z,41.27
2019-04-14T14:58:15.674Z,41.85
2019-04-14T15:00:42.261Z,42.12
2019-04-14T15:03:08.845Z,42.28
2019-04-14T15:05:35.419Z,42.33
2019-04-14T15:08:01.994Z,42.48
2019-04-14T15:10:28.554Z,42.57
2019-04-14T15:12:55.131Z,42.65
2019-04-14T15:15:21.701Z,42.70
2019-04-14T15:17:48.278Z,42.82
2019-04-14T15:20:14.859Z,42.82
2019-04-14T15:22:41.483Z,42.89
2019-04-14T15:25:08.061Z,42.77
2019-04-14T15:27:34.629Z,42.66
2019-04-14T15:30:01.222Z,42.30
2019-04-14T15:32:27.842Z,41.72
2019-04-14T15:34:54.462Z,41.18
2019-04-14T15:37:21.031Z,40.25
2019-04-14T15:39:47.601Z,37.99
2019-04-14T15:42:14.207Z,35.49
2019-04-14T15:44:40.774Z,32.99
2019-04-14T15:47:07.369Z,30.83
2019-04-14T15:49:34.055Z,29.00
2019-04-14T15:52:00.662Z,27.47
2019-04-14T15:54:27.239Z,26.17
2019-04-14T15:56:53.860Z,25.08
2019-04-14T15:59:20.437Z,24.12
2019-04-14T16:01:47.016Z,23.24
2019-04-14T16:04:13.608Z,22.43
2019-04-14T16:06:40.161Z,21.70
2019-04-14T16:09:06.820Z,21.06
2019-04-14T16:11:33.393Z,20.45
2019-04-14T16:14:00.007Z,19.93
2019-04-14T16:16:26.618Z,19.46
2019-04-14T16:18:53.235Z,18.98
2019-04-14T16:21:19.810Z,18.57
2019-04-14T16:23:50.843Z,18.23
2019-04-14T16:26:14.723Z,17.95
2019-04-14T16:28:41.329Z,17.69
2019-04-14T16:31:07.918Z,17.44
2019-04-14T16:33:34.601Z,17.22
2019-04-14T16:36:01.205Z,16.98
2019-04-14T16:38:27.771Z,16.78
2019-04-14T16:40:54.362Z,16.59
2019-04-14T16:43:21.005Z,16.38
2019-04-14T16:45:47.581Z,16.19
2019-04-14T16:48:14.158Z,16.00
2019-04-14T16:50:40.745Z,15.82
2019-04-14T16:53:07.315Z,15.68
2019-04-14T16:55:33.883Z,15.55
2019-04-14T16:58:00.528Z,15.42
2019-04-14T17:00:27.232Z,15.30
2019-04-14T17:02:53.810Z,15.16
2019-04-14T17:05:20.414Z,15.05
2019-04-14T17:07:46.985Z,14.91
2019-04-14T17:10:13.660Z,14.79
2019-04-14T17:12:40.287Z,14.65
2019-04-14T17:15:06.910Z,14.52
2019-04-14T17:17:33.491Z,14.39
2019-04-14T17:20:00.141Z,14.29
2019-04-14T17:22:26.740Z,14.19
2019-04-14T17:24:53.317Z,14.12
2019-04-14T17:27:19.880Z,14.03
2019-04-14T17:29:46.464Z,13.97
2019-04-14T17:32:13.036Z,13.91
2019-04-14T17:34:39.644Z,13.85
2019-04-14T17:37:06.222Z,13.78
2019-04-14T17:39:32.825Z,13.72
2019-04-14T17:41:59.404Z,13.65
2019-04-14T17:44:25.973Z,13.58
2019-04-14T17:46:52.553Z,13.52
2019-04-14T17:49:19.130Z,13.47
2019-04-14T17:51:45.703Z,13.42
2019-04-14T17:54:12.314Z,13.34
2019-04-14T17:56:38.891Z,13.30
2019-04-14T17:59:05.480Z,13.24
2019-04-14T18:01:32.061Z,13.18
2019-04-14T18:03:58.669Z,13.12
2019-04-14T18:06:25.314Z,13.02
2019-04-14T18:08:51.967Z,12.91
2019-04-14T18:11:20.355Z,12.84
2019-04-14T18:13:46.987Z,12.77
2019-04-14T18:16:13.620Z,12.72
2019-04-14T18:18:40.270Z,12.66
2019-04-14T18:21:06.881Z,12.61
2019-04-14T18:23:33.463Z,12.53
2019-04-14T18:26:00.033Z,12.46
2019-04-14T18:28:26.610Z,12.37
2019-04-14T18:30:53.186Z,12.25
2019-04-14T18:33:19.783Z,12.15
2019-04-14T18:35:46.349Z,12.06
2019-04-14T18:38:12.913Z,11.96
2019-04-14T18:40:39.509Z,11.85
2019-04-14T18:43:06.164Z,11.77
2019-04-14T18:45:32.769Z,11.68
2019-04-14T18:47:59.355Z,11.62
2019-04-14T18:50:25.923Z,11.55
2019-04-14T18:52:52.504Z,11.49
2019-04-14T18:55:19.082Z,11.40
2019-04-14T18:57:45.647Z,11.34
2019-04-14T19:00:12.226Z,11.28
2019-04-14T19:02:38.876Z,11.22
2019-04-14T19:05:05.471Z,11.19
2019-04-14T19:07:32.088Z,11.14
2019-04-14T19:09:58.666Z,11.10
2019-04-14T19:12:25.268Z,11.06
2019-04-14T19:14:51.838Z,11.03
2019-04-14T19:17:18.425Z,10.99
2019-04-14T19:19:45.002Z,10.96
2019-04-14T19:22:11.625Z,10.93
2019-04-14T19:24:38.246Z,10.88
2019-04-14T19:27:05.542Z,10.86
2019-04-14T19:29:32.116Z,10.82
2019-04-14T19:31:58.709Z,10.79
2019-04-14T19:34:25.286Z,10.75
2019-04-14T19:36:53.031Z,10.69
2019-04-14T19:39:19.604Z,10.66
2019-04-14T19:41:46.179Z,10.63
2019-04-14T19:44:12.766Z,10.58
2019-04-14T19:46:39.334Z,10.56
2019-04-14T19:49:05.927Z,10.52
2019-04-14T19:51:32.470Z,10.51
2019-04-14T19:53:59.062Z,10.48
2019-04-14T19:56:25.633Z,10.46
2019-04-14T19:58:52.784Z,10.47
2019-04-14T20:01:19.350Z,10.44
2019-04-14T20:03:45.932Z,10.44
2019-04-14T20:06:12.509Z,10.44
2019-04-14T20:08:39.092Z,10.43
2019-04-14T20:11:05.700Z,10.43
2019-04-14T20:13:32.267Z,10.41
2019-04-14T20:15:58.875Z,10.38
2019-04-14T20:18:25.502Z,10.34
2019-04-14T20:20:52.075Z,10.30
2019-04-14T20:23:18.765Z,10.26
2019-04-14T20:25:45.462Z,10.21
2019-04-14T20:28:12.064Z,10.16
2019-04-14T20:30:38.651Z,10.11
2019-04-14T20:33:05.225Z,10.05
2019-04-14T20:35:31.794Z,10.01
2019-04-14T20:37:58.385Z,9.95
2019-04-14T20:40:24.936Z,9.91
2019-04-14T20:42:51.505Z,9.85
2019-04-14T20:45:18.093Z,9.81
2019-04-14T20:47:44.659Z,9.78
2019-04-14T20:50:11.250Z,9.73
2019-04-14T20:52:37.818Z,9.69
2019-04-14T20:55:04.390Z,9.65
2019-04-14T20:57:30.976Z,9.60
2019-04-14T20:59:57.549Z,9.56
2019-04-14T21:02:24.180Z,9.50
2019-04-14T21:04:50.861Z,9.44
2019-04-14T21:07:17.474Z,9.39
2019-04-14T21:09:44.040Z,9.35
2019-04-14T21:12:10.622Z,9.30
2019-04-14T21:14:37.231Z,9.26
2019-04-14T21:17:03.807Z,9.21
2019-04-14T21:19:30.400Z,9.17
2019-04-14T21:21:57.034Z,9.13
2019-04-14T21:24:23.628Z,9.09
2019-04-14T21:26:50.200Z,9.05
2019-04-14T21:29:16.779Z,9.01
2019-04-14T21:31:43.395Z,8.97
2019-04-14T21:34:09.978Z,8.94
2019-04-14T21:36:36.561Z,8.90
2019-04-14T21:39:03.138Z,8.88
2019-04-14T21:41:29.707Z,8.85
2019-04-14T21:43:56.304Z,8.82
2019-04-14T21:46:22.987Z,8.78
2019-04-14T21:48:49.558Z,8.75
2019-04-14T21:51:16.158Z,8.70
2019-04-14T21:53:42.724Z,8.65
2019-04-14T21:56:13.635Z,8.61
2019-04-14T21:58:37.638Z,8.58
2019-04-14T22:01:04.247Z,8.55
2019-04-14T22:03:30.835Z,8.49
2019-04-14T22:05:57.398Z,8.46
2019-04-14T22:08:25.442Z,8.39
2019-04-14T22:10:52.232Z,8.34
2019-04-14T22:13:18.831Z,8.30
2019-04-14T22:15:45.483Z,8.24
2019-04-14T22:18:12.083Z,8.19
2019-04-14T22:20:38.666Z,8.14
2019-04-14T22:23:05.280Z,8.08
2019-04-14T22:25:31.855Z,8.04
2019-04-14T22:27:58.466Z,8.00
2019-04-14T22:30:25.045Z,7.96
2019-04-14T22:32:51.647Z,7.92
2019-04-14T22:35:18.217Z,7.88
2019-04-14T22:37:44.832Z,7.82
2019-04-14T22:40:11.415Z,7.77
2019-04-14T22:42:38.031Z,7.72
2019-04-14T22:45:04.644Z,7.68
2019-04-14T22:47:31.230Z,7.62
2019-04-14T22:49:57.805Z,7.60
2019-04-14T22:52:24.391Z,7.54
2019-04-14T22:54:51.000Z,7.49
2019-04-14T22:57:17.611Z,7.45
2019-04-14T22:59:44.188Z,7.40
2019-04-14T23:02:10.792Z,7.36
2019-04-14T23:04:37.369Z,7.31
2019-04-14T23:07:03.934Z,7.25
2019-04-14T23:09:30.545Z,7.20
2019-04-14T23:11:57.129Z,7.14
2019-04-14T23:14:23.698Z,7.09
2019-04-14T23:16:50.274Z,7.02
2019-04-14T23:19:16.875Z,6.98
2019-04-14T23:21:43.444Z,6.94
2019-04-14T23:24:10.040Z,6.89
2019-04-14T23:26:36.618Z,6.85
2019-04-14T23:29:03.245Z,6.81
2019-04-14T23:31:29.820Z,6.77
2019-04-14T23:33:56.438Z,6.73
2019-04-14T23:36:23.016Z,6.68
2019-04-14T23:38:49.634Z,6.62
2019-04-14T23:41:16.223Z,6.59
2019-04-14T23:43:43.002Z,6.53
2019-04-14T23:46:09.583Z,6.47
2019-04-14T23:48:36.205Z,6.41
2019-04-14T23:51:02.776Z,6.37
2019-04-14T23:53:29.366Z,6.31
2019-04-14T23:55:55.960Z,6.27
2019-04-14T23:58:22.540Z,6.23
